Time;durP1;ratioP1;P1;durP2;ratioP2;P2;SDS_P1;SDS_P2;PMS_P1;PMS_P2;Temp;Humidity;BMP_temperature;BMP_pressure;BME280_temperature;BME280_humidity;BME280_pressure;Samples;Min_cycle;Max_cycle;Signal;HPM_P1;HPM_P2
2021/09/16 00:02:03;;;;;;;2.00;1.67;;;;;;;;;;5009829;28;20452;-73
2021/09/16 00:04:30;;;;;;;1.63;1.37;;;;;;;;;;5010107;28;20535;-72
2021/09/16 00:06:57;;;;;;;3.03;1.97;;;;;;;;;;5009963;28;20452;-72
2021/09/16 00:09:25;;;;;;;2.90;1.93;;;;;;;;;;5010010;28;20463;-72
2021/09/16 00:11:52;;;;;;;3.33;2.40;;;;;;;;;;5010247;28;20530;-72
2021/09/16 00:14:22;;;;;;;2.50;1.90;;;;;;;;;;5009353;28;20482;-72
2021/09/16 00:16:49;;;;;;;3.63;1.90;;;;;;;;;;5008243;28;20520;-73
2021/09/16 00:19:16;;;;;;;2.60;2.30;;;;;;;;;;5009614;28;20474;-72
2021/09/16 00:21:43;;;;;;;2.47;2.20;;;;;;;;;;5008598;28;20539;-72
2021/09/16 00:24:10;;;;;;;3.70;2.20;;;;;;;;;;5009895;28;20463;-72
2021/09/16 00:26:37;;;;;;;2.40;1.90;;;;;;;;;;5009654;28;20793;-72
2021/09/16 00:29:05;;;;;;;2.10;1.73;;;;;;;;;;5006160;28;20438;-72
2021/09/16 00:31:33;;;;;;;2.80;2.13;;;;;;;;;;5005494;28;20470;-72
2021/09/16 00:34:00;;;;;;;3.07;2.03;;;;;;;;;;5009702;28;20611;-72
2021/09/16 00:36:27;;;;;;;2.80;2.30;;;;;;;;;;5009454;28;20459;-73
2021/09/16 00:38:55;;;;;;;2.67;1.83;;;;;;;;;;5009648;28;20490;-72
2021/09/16 00:41:22;;;;;;;3.10;1.97;;;;;;;;;;5009501;28;20551;-73
2021/09/16 00:43:49;;;;;;;2.60;1.67;;;;;;;;;;5008582;28;20534;-73
2021/09/16 00:46:16;;;;;;;2.33;1.90;;;;;;;;;;5009394;28;20583;-72
2021/09/16 00:48:44;;;;;;;2.17;1.67;;;;;;;;;;5008506;28;20466;-72
2021/09/16 00:51:12;;;;;;;2.60;2.00;;;;;;;;;;5008893;28;20448;-72
2021/09/16 00:53:40;;;;;;;4.97;2.13;;;;;;;;;;5008836;28;20476;-72
2021/09/16 00:56:09;;;;;;;2.40;1.80;;;;;;;;;;5009780;28;20460;-72
2021/09/16 00:58:40;;;;;;;2.27;1.70;;;;;;;;;;5008943;28;20895;-72
2021/09/16 01:01:07;;;;;;;6.03;2.90;;;;;;;;;;5009126;28;20448;-72
2021/09/16 01:03:34;;;;;;;2.97;2.33;;;;;;;;;;5008710;28;20815;-72
2021/09/16 01:06:03;;;;;;;3.20;2.20;;;;;;;;;;5009537;28;20449;-73
2021/09/16 01:08:30;;;;;;;5.27;2.50;;;;;;;;;;5004974;28;20979;-72
2021/09/16 01:10:59;;;;;;;2.97;1.70;;;;;;;;;;4997250;28;20441;-72
2021/09/16 01:13:26;;;;;;;8.70;2.00;;;;;;;;;;4990300;28;20492;-73
2021/09/16 01:15:53;;;;;;;10.23;2.67;;;;;;;;;;5001833;28;20544;-72
2021/09/16 01:18:20;;;;;;;2.20;1.40;;;;;;;;;;5005215;28;20555;-72
2021/09/16 01:20:48;;;;;;;2.00;1.80;;;;;;;;;;5008368;28;20449;-72
2021/09/16 01:23:16;;;;;;;2.50;1.63;;;;;;;;;;5009006;28;20444;-72
2021/09/16 01:25:43;;;;;;;2.30;1.47;;;;;;;;;;5008991;28;20526;-72
2021/09/16 01:28:11;;;;;;;2.03;1.47;;;;;;;;;;5011357;28;20535;-72
2021/09/16 01:30:38;;;;;;;2.50;1.40;;;;;;;;;;5012136;28;20448;-72
2021/09/16 01:33:05;;;;;;;1.60;1.43;;;;;;;;;;5012985;28;20868;-73
2021/09/16 01:35:35;;;;;;;2.10;1.50;;;;;;;;;;5012384;28;20844;-73
2021/09/16 01:38:02;;;;;;;1.90;1.40;;;;;;;;;;5012935;28;20462;-73
2021/09/16 01:40:31;;;;;;;1.90;1.50;;;;;;;;;;5011964;28;20452;-73
2021/09/16 01:42:58;;;;;;;1.83;1.60;;;;;;;;;;5013293;28;20452;-73
2021/09/16 01:45:26;;;;;;;2.47;1.43;;;;;;;;;;5013194;28;20547;-73
2021/09/16 01:47:54;;;;;;;2.30;2.10;;;;;;;;;;5012570;28;20455;-73
2021/09/16 01:50:24;;;;;;;1.77;1.67;;;;;;;;;;5012935;28;20460;-73
2021/09/16 01:52:52;;;;;;;1.73;1.57;;;;;;;;;;5012702;28;20878;-73
2021/09/16 01:55:21;;;;;;;3.30;1.40;;;;;;;;;;5012062;28;20479;-73
2021/09/16 01:57:49;;;;;;;4.03;2.30;;;;;;;;;;5012009;28;20459;-73
2021/09/16 02:00:16;;;;;;;3.00;1.53;;;;;;;;;;5012378;28;20447;-73
2021/09/16 02:02:44;;;;;;;3.20;1.90;;;;;;;;;;5011866;28;20996;-73
2021/09/16 02:05:11;;;;;;;2.37;1.60;;;;;;;;;;5012302;28;20538;-73
2021/09/16 02:07:38;;;;;;;2.00;1.77;;;;;;;;;;5011659;28;20445;-73
2021/09/16 02:10:06;;;;;;;3.73;2.00;;;;;;;;;;5012219;28;20455;-73
2021/09/16 02:12:33;;;;;;;2.13;1.70;;;;;;;;;;5012488;28;20456;-73
2021/09/16 02:15:02;;;;;;;3.40;1.60;;;;;;;;;;5012679;28;20489;-73
2021/09/16 02:17:29;;;;;;;3.00;2.30;;;;;;;;;;5011399;28;20444;-73
2021/09/16 02:19:56;;;;;;;2.40;1.40;;;;;;;;;;5003412;28;21047;-73
2021/09/16 02:22:23;;;;;;;2.27;1.50;;;;;;;;;;5011868;28;20455;-73
2021/09/16 02:24:51;;;;;;;1.80;1.30;;;;;;;;;;5011156;28;21023;-73
2021/09/16 02:27:18;;;;;;;1.63;1.30;;;;;;;;;;5011581;28;20803;-73
2021/09/16 02:29:45;;;;;;;3.20;1.50;;;;;;;;;;5010970;28;20460;-73
2021/09/16 02:32:14;;;;;;;3.03;1.83;;;;;;;;;;5012219;28;20531;-73
2021/09/16 02:34:41;;;;;;;2.10;1.70;;;;;;;;;;5010843;28;20483;-73
2021/09/16 02:37:08;;;;;;;2.67;1.20;;;;;;;;;;5011422;28;20457;-73
2021/09/16 02:39:35;;;;;;;1.97;1.40;;;;;;;;;;5010379;28;20562;-73
2021/09/16 02:42:03;;;;;;;3.57;1.27;;;;;;;;;;5011333;28;20458;-73
2021/09/16 02:44:30;;;;;;;2.37;1.33;;;;;;;;;;5011722;28;20466;-74
2021/09/16 02:46:57;;;;;;;3.00;1.50;;;;;;;;;;5011599;28;20498;-74
2021/09/16 02:49:26;;;;;;;2.17;1.60;;;;;;;;;;5011607;28;20503;-74
2021/09/16 02:51:53;;;;;;;2.07;1.57;;;;;;;;;;5011651;28;20479;-74
2021/09/16 02:54:20;;;;;;;2.53;1.40;;;;;;;;;;5010775;28;20480;-74
2021/09/16 02:56:47;;;;;;;1.90;1.70;;;;;;;;;;5010756;28;20554;-74
2021/09/16 02:59:14;;;;;;;2.10;1.13;;;;;;;;;;5011498;28;20448;-74
2021/09/16 03:01:42;;;;;;;2.17;1.50;;;;;;;;;;5010130;28;20458;-74
2021/09/16 03:04:09;;;;;;;1.80;1.40;;;;;;;;;;5011187;28;20975;-74
2021/09/16 03:06:37;;;;;;;2.10;1.37;;;;;;;;;;5010310;28;20479;-74
2021/09/16 03:09:05;;;;;;;2.20;2.00;;;;;;;;;;5011341;28;20452;-74
2021/09/16 03:11:32;;;;;;;2.73;1.77;;;;;;;;;;5009527;28;20972;-74
2021/09/16 03:13:59;;;;;;;2.43;1.60;;;;;;;;;;5011150;28;20448;-74
2021/09/16 03:16:27;;;;;;;1.70;1.50;;;;;;;;;;5011515;28;20455;-74
2021/09/16 03:18:54;;;;;;;2.13;1.70;;;;;;;;;;5010788;28;20475;-74
2021/09/16 03:21:21;;;;;;;2.70;1.33;;;;;;;;;;5008313;28;20540;-74
2021/09/16 03:23:49;;;;;;;1.80;1.40;;;;;;;;;;5000560;28;20563;-74
2021/09/16 03:26:17;;;;;;;1.63;1.50;;;;;;;;;;5010644;28;20455;-74
2021/09/16 03:28:44;;;;;;;4.40;1.50;;;;;;;;;;5010346;28;20933;-74
2021/09/16 03:31:11;;;;;;;2.17;1.43;;;;;;;;;;5009904;28;20462;-74
2021/09/16 03:33:38;;;;;;;2.30;1.50;;;;;;;;;;5009850;28;20877;-74
2021/09/16 03:36:05;;;;;;;2.50;1.37;;;;;;;;;;5010766;28;20490;-74
2021/09/16 03:38:33;;;;;;;3.90;1.90;;;;;;;;;;5009678;28;20559;-74
2021/09/16 03:41:01;;;;;;;1.80;1.67;;;;;;;;;;5002254;28;20531;-73
2021/09/16 03:43:28;;;;;;;3.00;1.80;;;;;;;;;;4997427;28;20956;-73
2021/09/16 03:45:56;;;;;;;3.30;1.70;;;;;;;;;;5010361;28;20468;-73
2021/09/16 03:48:23;;;;;;;1.97;1.13;;;;;;;;;;5001387;28;20900;-73
2021/09/16 03:50:50;;;;;;;1.90;1.50;;;;;;;;;;5009093;28;20527;-73
2021/09/16 03:53:18;;;;;;;2.70;2.40;;;;;;;;;;5009698;28;20453;-73
2021/09/16 03:55:45;;;;;;;2.13;1.73;;;;;;;;;;5008431;28;20483;-73
2021/09/16 03:58:15;;;;;;;2.50;1.93;;;;;;;;;;5010290;28;20945;-73
2021/09/16 04:00:42;;;;;;;2.33;1.40;;;;;;;;;;5008846;28;20539;-73
2021/09/16 04:03:10;;;;;;;1.70;1.40;;;;;;;;;;5010565;28;20452;-73
2021/09/16 04:05:37;;;;;;;3.10;1.60;;;;;;;;;;5010304;28;20808;-73
2021/09/16 04:08:05;;;;;;;2.60;1.47;;;;;;;;;;5010297;28;20452;-73
2021/09/16 04:10:32;;;;;;;3.60;1.87;;;;;;;;;;5008577;28;20448;-73
2021/09/16 04:12:59;;;;;;;4.57;1.60;;;;;;;;;;4994667;28;20445;-73
2021/09/16 04:15:28;;;;;;;3.40;1.67;;;;;;;;;;5003786;28;20483;-73
2021/09/16 04:17:55;;;;;;;2.43;1.80;;;;;;;;;;5003846;28;20783;-73
2021/09/16 04:20:22;;;;;;;3.53;2.00;;;;;;;;;;5008677;28;20452;-73
2021/09/16 04:22:49;;;;;;;2.33;1.80;;;;;;;;;;5006484;28;20452;-73
2021/09/16 04:25:16;;;;;;;2.10;1.90;;;;;;;;;;4990557;28;20449;-73
2021/09/16 04:27:44;;;;;;;2.10;1.63;;;;;;;;;;4996432;28;20804;-72
2021/09/16 04:30:11;;;;;;;2.57;1.80;;;;;;;;;;5009963;28;20555;-71
2021/09/16 04:32:40;;;;;;;2.27;2.07;;;;;;;;;;5009552;28;20527;-71
2021/09/16 04:35:08;;;;;;;2.47;2.03;;;;;;;;;;5009887;28;20480;-71
2021/09/16 04:37:35;;;;;;;2.67;2.47;;;;;;;;;;5009566;28;20452;-72
2021/09/16 04:40:02;;;;;;;2.83;2.00;;;;;;;;;;5009439;28;20563;-71
2021/09/16 04:42:29;;;;;;;2.60;1.47;;;;;;;;;;5009246;28;20531;-71
2021/09/16 04:44:56;;;;;;;2.90;2.03;;;;;;;;;;5009638;28;20459;-73
2021/09/16 04:47:24;;;;;;;2.40;2.20;;;;;;;;;;5009885;28;20448;-72
2021/09/16 04:49:52;;;;;;;3.63;1.80;;;;;;;;;;5009432;28;20555;-72
2021/09/16 04:52:19;;;;;;;2.33;1.57;;;;;;;;;;5009857;28;20546;-72
2021/09/16 04:54:46;;;;;;;2.10;1.80;;;;;;;;;;5008795;28;21075;-72
2021/09/16 04:57:14;;;;;;;2.73;1.80;;;;;;;;;;5010318;28;20498;-71
2021/09/16 04:59:41;;;;;;;2.30;1.70;;;;;;;;;;5009034;28;20464;-74
2021/09/16 05:02:08;;;;;;;2.00;1.60;;;;;;;;;;5011418;28;20881;-71
2021/09/16 05:04:35;;;;;;;10.90;7.70;;;;;;;;;;5013168;28;20447;-71
2021/09/16 05:07:04;;;;;;;3.53;2.43;;;;;;;;;;5013931;28;20450;-72
2021/09/16 05:09:31;;;;;;;4.47;2.03;;;;;;;;;;5011377;28;20448;-72
2021/09/16 05:11:58;;;;;;;1.70;1.53;;;;;;;;;;5012516;28;20880;-71
2021/09/16 05:14:25;;;;;;;2.10;1.90;;;;;;;;;;5013751;28;20443;-72
2021/09/16 05:16:52;;;;;;;8.23;1.83;;;;;;;;;;5013514;28;20534;-72
2021/09/16 05:19:19;;;;;;;4.20;3.10;;;;;;;;;;5013312;28;20470;-72
2021/09/16 05:21:47;;;;;;;2.97;1.90;;;;;;;;;;5012977;28;20535;-72
2021/09/16 05:24:17;;;;;;;3.10;2.00;;;;;;;;;;5013604;28;20452;-71
2021/09/16 05:26:44;;;;;;;3.23;2.20;;;;;;;;;;5012849;28;20527;-72
2021/09/16 05:29:11;;;;;;;2.63;1.83;;;;;;;;;;5013528;28;20444;-71
2021/09/16 05:31:39;;;;;;;3.27;2.20;;;;;;;;;;5012658;28;21000;-71
2021/09/16 05:34:06;;;;;;;2.93;2.00;;;;;;;;;;5013798;28;20808;-71
2021/09/16 05:36:33;;;;;;;5.10;2.57;;;;;;;;;;5013132;28;20570;-71
2021/09/16 05:39:00;;;;;;;3.00;2.13;;;;;;;;;;5013171;28;20474;-72
2021/09/16 05:41:30;;;;;;;4.43;2.80;;;;;;;;;;5001188;28;20448;-75
2021/09/16 05:43:57;;;;;;;3.80;3.13;;;;;;;;;;4993912;28;20445;-71
2021/09/16 05:46:24;;;;;;;3.57;2.80;;;;;;;;;;5003000;28;21355;-71
2021/09/16 05:48:51;;;;;;;3.17;2.10;;;;;;;;;;4994076;28;20465;-70
2021/09/16 05:51:18;;;;;;;3.67;2.93;;;;;;;;;;4998220;28;20459;-71
2021/09/16 05:53:46;;;;;;;2.83;2.33;;;;;;;;;;5007488;28;20480;-72
2021/09/16 05:56:13;;;;;;;4.90;2.30;;;;;;;;;;5004991;28;20575;-71
2021/09/16 05:58:41;;;;;;;3.70;2.30;;;;;;;;;;4996015;28;20480;-71
2021/09/16 06:01:08;;;;;;;3.13;2.67;;;;;;;;;;4993571;28;20862;-71
2021/09/16 06:03:36;;;;;;;5.77;2.60;;;;;;;;;;4993016;28;20460;-71
2021/09/16 06:06:03;;;;;;;3.47;2.70;;;;;;;;;;4993303;28;20547;-71
2021/09/16 06:08:30;;;;;;;6.03;3.63;;;;;;;;;;4993274;28;20529;-70
2021/09/16 06:10:57;;;;;;;3.90;2.60;;;;;;;;;;4993086;28;20528;-71
2021/09/16 06:13:24;;;;;;;6.40;3.93;;;;;;;;;;5000504;28;20534;-71
2021/09/16 06:15:53;;;;;;;4.33;2.97;;;;;;;;;;5013092;28;20845;-70
2021/09/16 06:18:20;;;;;;;4.70;3.60;;;;;;;;;;5012983;28;20539;-70
2021/09/16 06:20:49;;;;;;;4.97;2.73;;;;;;;;;;5012021;28;20444;-70
2021/09/16 06:23:16;;;;;;;9.80;3.37;;;;;;;;;;5012983;28;20460;-70
2021/09/16 06:25:43;;;;;;;3.13;2.83;;;;;;;;;;5012173;28;20817;-70
2021/09/16 06:28:10;;;;;;;3.50;2.10;;;;;;;;;;5012568;28;20458;-70
2021/09/16 06:30:38;;;;;;;3.03;2.73;;;;;;;;;;5011774;28;20466;-71
2021/09/16 06:33:07;;;;;;;4.50;2.93;;;;;;;;;;5012383;28;20459;-71
2021/09/16 06:35:34;;;;;;;4.40;2.10;;;;;;;;;;5011700;28;20991;-70
2021/09/16 06:38:01;;;;;;;3.10;2.20;;;;;;;;;;5012296;28;20456;-73
2021/09/16 06:40:28;;;;;;;4.03;2.90;;;;;;;;;;5007735;28;20830;-71
2021/09/16 06:42:55;;;;;;;2.83;2.50;;;;;;;;;;4992935;28;20453;-70
2021/09/16 06:45:22;;;;;;;5.53;3.17;;;;;;;;;;4993349;28;20464;-70
2021/09/16 06:47:50;;;;;;;2.50;2.30;;;;;;;;;;5001266;28;20952;-71
2021/09/16 06:50:18;;;;;;;5.57;2.50;;;;;;;;;;4992334;28;20457;-70
2021/09/16 06:52:45;;;;;;;4.13;3.00;;;;;;;;;;4991956;28;20449;-70
2021/09/16 06:55:12;;;;;;;3.87;2.60;;;;;;;;;;4992380;28;20456;-71
2021/09/16 06:57:40;;;;;;;3.30;2.40;;;;;;;;;;4991778;28;20544;-70
2021/09/16 07:00:07;;;;;;;3.53;2.13;;;;;;;;;;4991855;28;20535;-71
2021/09/16 07:02:35;;;;;;;3.57;2.13;;;;;;;;;;4998157;28;20936;-71
2021/09/16 07:05:02;;;;;;;3.90;2.47;;;;;;;;;;4993209;28;20453;-71
2021/09/16 07:07:31;;;;;;;4.20;2.20;;;;;;;;;;4991788;28;20457;-71
2021/09/16 07:09:58;;;;;;;3.13;2.20;;;;;;;;;;4991480;28;20476;-71
2021/09/16 07:12:26;;;;;;;3.43;2.40;;;;;;;;;;4992057;28;20973;-73
2021/09/16 07:14:53;;;;;;;3.90;2.50;;;;;;;;;;4992296;28;20484;-71
2021/09/16 07:17:20;;;;;;;3.33;2.47;;;;;;;;;;4992253;28;20491;-70
2021/09/16 07:19:47;;;;;;;3.93;2.40;;;;;;;;;;4991353;28;20465;-72
2021/09/16 07:22:14;;;;;;;4.63;2.83;;;;;;;;;;4992085;28;20874;-70
2021/09/16 07:24:43;;;;;;;5.57;2.50;;;;;;;;;;4990879;28;20971;-70
2021/09/16 07:27:10;;;;;;;5.23;2.80;;;;;;;;;;4991101;28;20455;-70
2021/09/16 07:29:38;;;;;;;3.80;2.53;;;;;;;;;;4990724;28;20464;-70
2021/09/16 07:32:05;;;;;;;3.10;2.23;;;;;;;;;;4991648;28;20813;-70
2021/09/16 07:34:32;;;;;;;4.27;2.97;;;;;;;;;;4991178;28;20459;-70
2021/09/16 07:37:00;;;;;;;4.23;2.30;;;;;;;;;;4991677;28;20485;-70
2021/09/16 07:39:27;;;;;;;2.80;2.27;;;;;;;;;;4999207;28;20475;-72
2021/09/16 07:41:55;;;;;;;2.30;2.10;;;;;;;;;;4995724;28;20561;-70
2021/09/16 07:44:23;;;;;;;3.30;3.00;;;;;;;;;;4991623;28;20450;-71
2021/09/16 07:46:50;;;;;;;6.00;4.27;;;;;;;;;;5001420;28;20460;-69
2021/09/16 07:49:17;;;;;;;6.57;4.50;;;;;;;;;;4990930;28;20473;-70
2021/09/16 07:51:44;;;;;;;7.57;4.30;;;;;;;;;;4990767;28;20453;-71
2021/09/16 07:54:12;;;;;;;5.67;4.20;;;;;;;;;;4991208;28;20544;-70
2021/09/16 07:56:39;;;;;;;7.27;4.47;;;;;;;;;;4990519;28;20492;-70
2021/09/16 07:59:08;;;;;;;5.57;4.63;;;;;;;;;;4991036;28;20460;-70
2021/09/16 08:01:35;;;;;;;9.00;3.80;;;;;;;;;;4990918;28;20536;-71
2021/09/16 08:04:02;;;;;;;3.00;2.60;;;;;;;;;;5001059;28;20444;-70
2021/09/16 08:06:29;;;;;;;4.87;3.50;;;;;;;;;;5010059;28;20444;-71
2021/09/16 08:08:57;;;;;;;4.60;3.53;;;;;;;;;;5010823;28;20488;-72
2021/09/16 08:11:24;;;;;;;3.77;2.43;;;;;;;;;;5010390;28;20456;-69
2021/09/16 08:13:52;;;;;;;3.00;2.27;;;17.90;99.90;;;;;;5010195;28;20488;-69
2021/09/16 08:16:20;;;;;;;3.40;2.30;;;17.60;99.90;;;;;;5010512;28;20515;-69
2021/09/16 08:18:48;;;;;;;5.40;2.70;;;17.70;99.90;;;;;;5009781;28;20460;-69
2021/09/16 08:21:16;;;;;;;2.30;2.07;;;17.80;99.90;;;;;;5010094;28;20467;-69
2021/09/16 08:23:43;;;;;;;2.80;1.60;;;17.80;99.90;;;;;;5009626;28;20952;-69
2021/09/16 08:26:10;;;;;;;2.00;1.60;;;17.80;99.90;;;;;;5010511;28;20458;-69
2021/09/16 08:28:36;;;;;;;1.50;1.40;;;17.60;99.90;;;;;;5009892;28;20452;-69
2021/09/16 08:31:07;;;;;;;3.00;1.70;;;17.70;99.90;;;;;;5009651;28;20452;-69
2021/09/16 08:33:36;;;;;;;1.87;1.37;;;17.70;99.90;;;;;;5009774;28;20510;-71
2021/09/16 08:36:03;;;;;;;2.10;1.40;;;17.70;99.90;;;;;;5010097;28;20530;-69
2021/09/16 08:38:31;;;;;;;1.63;1.30;;;17.70;99.90;;;;;;5009293;28;20482;-69
2021/09/16 08:40:58;;;;;;;3.20;1.13;;;17.80;99.90;;;;;;5002116;28;20973;-70
2021/09/16 08:43:30;;;;;;;1.70;1.20;;;17.80;99.90;;;;;;4990484;28;20547;-70
2021/09/16 08:45:57;;;;;;;1.90;1.37;;;17.70;99.90;;;;;;4996133;28;20489;-70
2021/09/16 08:48:24;;;;;;;2.13;1.33;;;17.70;99.90;;;;;;4994518;28;20459;-69
2021/09/16 08:50:53;;;;;;;1.50;1.20;;;17.70;99.90;;;;;;4989874;28;20533;-69
2021/09/16 08:53:24;;;;;;;0.90;0.80;;;17.80;99.90;;;;;;4990343;28;20484;-69
2021/09/16 08:55:52;;;;;;;1.60;0.97;;;17.70;99.90;;;;;;4989305;28;20453;-69
2021/09/16 08:58:21;;;;;;;1.23;0.90;;;17.70;99.90;;;;;;4990112;28;20992;-69
2021/09/16 09:00:48;;;;;;;1.63;1.10;;;17.70;99.90;;;;;;4989272;28;20452;-69
2021/09/16 09:03:15;;;;;;;0.80;0.67;;;17.70;99.90;;;;;;4989917;28;21000;-70
2021/09/16 09:05:42;;;;;;;2.20;1.30;;;17.60;99.90;;;;;;4989174;28;20876;-70
2021/09/16 09:08:12;;;;;;;2.60;1.20;;;17.40;99.90;;;;;;4990141;28;20789;-70
2021/09/16 09:10:41;;;;;;;1.27;1.10;;;17.40;99.90;;;;;;4989043;28;20584;-69
2021/09/16 09:13:11;;;;;;;2.10;1.67;;;17.30;99.90;;;;;;4990158;28;20545;-70
2021/09/16 09:15:41;;;;;;;2.93;2.60;;;17.40;99.90;;;;;;4989949;28;20451;-70
2021/09/16 09:18:11;;;;;;;6.10;2.70;;;17.10;99.90;;;;;;4990860;28;20472;-69
2021/09/16 09:20:55;;;;;;;5.73;3.83;;;17.30;99.90;;;;;;4989636;28;20543;-70
2021/09/16 09:23:29;;;;;;;4.60;4.17;;;17.20;99.90;;;;;;4990660;28;20953;-70
2021/09/16 09:25:57;;;;;;;5.13;4.63;;;17.30;99.90;;;;;;5003634;28;20448;-71
2021/09/16 09:28:30;;;;;;;5.60;5.10;;;17.30;99.90;;;;;;5001540;28;20805;-69
2021/09/16 09:30:57;;;;;;;7.20;5.90;;;17.30;99.90;;;;;;5009581;28;20794;-69
2021/09/16 09:33:30;;;;;;;6.57;5.30;;;17.50;99.90;;;;;;4998173;28;20448;-69
2021/09/16 09:36:06;;;;;;;6.20;4.93;;;17.50;99.90;;;;;;4990494;28;20841;-69
2021/09/16 09:38:47;;;;;;;9.50;5.83;;;17.50;99.90;;;;;;5004216;28;20518;-69
2021/09/16 09:41:23;;;;;;;5.57;5.07;;;17.50;99.90;;;;;;5009999;28;20523;-69
2021/09/16 09:43:50;;;;;;;5.83;5.23;;;17.40;99.90;;;;;;4994988;28;20449;-69
2021/09/16 09:46:18;;;;;;;6.50;5.07;;;17.50;99.90;;;;;;5000794;28;20504;-69
2021/09/16 09:48:47;;;;;;;4.70;4.30;;;17.50;99.90;;;;;;4991751;28;20941;-70
2021/09/16 09:51:15;;;;;;;4.27;3.83;;;17.40;99.90;;;;;;4993468;28;20536;-69
2021/09/16 09:53:45;;;;;;;5.60;3.80;;;17.20;99.90;;;;;;4992957;28;20445;-69
2021/09/16 09:56:15;;;;;;;4.67;3.90;;;17.20;99.90;;;;;;4993269;28;21010;-69
2021/09/16 09:58:42;;;;;;;4.80;3.60;;;17.10;99.90;;;;;;4992675;28;20471;-69
2021/09/16 10:01:29;;;;;;;4.63;4.17;;;17.30;99.90;;;;;;4992763;28;20933;-69
2021/09/16 10:03:56;;;;;;;9.73;6.77;;;17.20;99.90;;;;;;4992895;28;20947;-72
2021/09/16 10:06:32;;;;;;;6.43;5.77;;;17.20;99.90;;;;;;4992985;28;20547;-70
2021/09/16 10:09:11;;;;;;;6.53;5.27;;;17.20;99.90;;;;;;4992812;28;20458;-70
2021/09/16 10:11:40;;;;;;;11.20;5.57;;;17.30;99.90;;;;;;4992501;28;20477;-69
2021/09/16 10:14:07;;;;;;;7.67;6.87;;;17.40;99.90;;;;;;4993334;28;20544;-70
2021/09/16 10:16:34;;;;;;;8.07;7.23;;;17.40;99.90;;;;;;4992348;28;20512;-70
2021/09/16 10:19:01;;;;;;;11.60;7.63;;;17.30;99.90;;;;;;4992356;28;20496;-72
2021/09/16 10:21:28;;;;;;;10.80;8.03;;;17.00;99.90;;;;;;4992358;28;20449;-70
2021/09/16 10:23:56;;;;;;;11.93;6.97;;;16.90;99.90;;;;;;4993022;28;20460;-70
2021/09/16 10:26:35;;;;;;;9.37;7.53;;;16.70;99.90;;;;;;4993030;28;20476;-70
2021/09/16 10:29:03;;;;;;;10.50;7.87;;;17.00;99.90;;;;;;4992135;28;20883;-70
2021/09/16 10:31:30;;;;;;;10.37;8.50;;;17.10;99.90;;;;;;4991794;28;20528;-74
2021/09/16 10:33:57;;;;;;;10.50;8.17;;;17.00;99.90;;;;;;4992486;28;20456;-70
2021/09/16 10:36:24;;;;;;;11.23;7.90;;;17.10;99.90;;;;;;4992339;28;21048;-70
2021/09/16 10:38:55;;;;;;;10.77;8.30;;;16.80;99.90;;;;;;4995238;28;20494;-70
2021/09/16 10:41:25;;;;;;;11.53;7.13;;;16.90;99.90;;;;;;5001176;28;20452;-70
2021/09/16 10:44:22;;;;;;;9.13;8.13;;;17.10;99.90;;;;;;4992340;28;20445;-70
2021/09/16 10:46:52;;;;;;;9.00;7.50;;;17.30;99.90;;;;;;4995649;28;20503;-70
2021/09/16 10:49:33;;;;;;;8.87;7.67;;;17.60;99.90;;;;;;4991605;28;20890;-71
2021/09/16 10:52:03;;;;;;;9.30;7.70;;;17.60;99.90;;;;;;4992322;28;20490;-71
2021/09/16 10:54:39;;;;;;;8.17;7.27;;;17.60;99.90;;;;;;4992021;28;20445;-71
2021/09/16 10:57:07;;;;;;;11.53;9.70;;;17.70;99.90;;;;;;4992135;28;20547;-71
2021/09/16 11:03:12;;;;;;;10.13;8.47;;;17.60;99.90;;;;;;5113652;27;20529;-70
2021/09/16 11:06:00;;;;;;;10.07;8.07;;;17.60;99.90;;;;;;5097107;28;20935;-71
2021/09/16 11:09:01;;;;;;;11.87;8.87;;;17.60;99.90;;;;;;5106694;28;20944;-74
2021/09/16 11:11:54;;;;;;;12.93;9.93;;;17.60;99.90;;;;;;5096488;28;20538;-75
2021/09/16 11:14:33;;;;;;;10.60;8.90;;;17.60;99.90;;;;;;5087536;28;20861;-72
2021/09/16 11:17:02;;;;;;;11.53;9.20;;;17.70;99.90;;;;;;5087391;28;20554;-75
2021/09/16 11:19:31;;;;;;;12.37;8.63;;;17.80;99.90;;;;;;5086222;28;20437;-71
2021/09/16 11:22:06;;;;;;;13.63;9.50;;;17.80;99.90;;;;;;5087159;28;20490;-71
2021/09/16 11:24:39;;;;;;;12.07;9.30;;;17.90;99.90;;;;;;5086264;28;20928;-71
2021/09/16 11:27:07;;;;;;;11.40;9.23;;;17.70;99.90;;;;;;5087202;28;20524;-71
2021/09/16 11:29:43;;;;;;;12.23;9.63;;;17.90;99.90;;;;;;5086185;28;20821;-72
2021/09/16 11:32:11;;;;;;;11.37;8.63;;;18.00;99.90;;;;;;5086702;28;20452;-71
2021/09/16 11:34:51;;;;;;;13.43;9.17;;;18.10;99.90;;;;;;5086459;28;20480;-71
2021/09/16 11:37:22;;;;;;;11.87;10.30;;;18.00;99.90;;;;;;5086747;28;20444;-71
2021/09/16 11:39:59;;;;;;;12.97;9.50;;;18.10;99.90;;;;;;5086007;28;20445;-71
2021/09/16 11:42:26;;;;;;;13.57;9.33;;;18.10;99.90;;;;;;5106966;28;20467;-75
2021/09/16 11:44:58;;;;;;;11.13;9.40;;;17.90;99.90;;;;;;5107323;28;20471;-71
2021/09/16 11:47:25;;;;;;;15.43;8.80;;;18.00;39.70;;;;;;5088497;28;20467;-71
2021/09/16 11:49:54;;;;;;;10.97;8.30;;;;;;;;;;5085857;28;20475;-71
2021/09/16 11:52:22;;;;;;;10.73;9.00;;;;;;;;;;5086588;28;20483;-74
2021/09/16 11:55:06;;;;;;;9.60;8.60;;;;;;;;;;5085757;28;20452;-71
2021/09/16 11:57:33;;;;;;;11.20;8.70;;;;;;;;;;5085677;28;20459;-71
2021/09/16 12:00:18;;;;;;;16.30;9.97;;;;;;;;;;5085746;28;20445;-72
2021/09/16 12:02:49;;;;;;;14.43;9.63;;;;;;;;;;5085082;28;21301;-71
2021/09/16 12:08:18;;;;;;;18.50;11.97;;;;;;;;;;5087139;28;20652;-72
2021/09/16 12:10:47;;;;;;;15.73;10.33;;;;;;;;;;5085798;28;20447;-72
2021/09/16 12:13:16;;;;;;;12.83;9.63;;;;;;;;;;5087385;28;20449;-71
2021/09/16 12:15:44;;;;;;;11.97;10.77;;;;;;;;;;5086484;28;20536;-71
2021/09/16 12:18:12;;;;;;;16.07;11.53;;;;;;;;;;5087481;28;20531;-72
2021/09/16 12:20:40;;;;;;;13.73;11.10;;;;;;;;;;5086951;28;20859;-71
2021/09/16 12:23:10;;;;;;;19.40;12.97;;;;;;;;;;5087242;28;20535;-71
2021/09/16 12:25:52;;;;;;;21.83;12.00;;;;;;;;;;5086775;28;20957;-71
2021/09/16 12:28:19;;;;;;;14.10;11.10;;;;;;;;;;5087243;28;20442;-71
2021/09/16 12:30:47;;;;;;;14.60;11.93;;;;;;;;;;5086373;28;21193;-71
2021/09/16 12:33:31;;;;;;;17.17;12.40;;;;;;;;;;5087171;28;20472;-71
2021/09/16 12:36:21;;;;;;;15.60;13.00;;;;;;;;;;5087206;28;20874;-72
2021/09/16 12:38:50;;;;;;;16.50;14.47;;;;;;;;;;5086108;28;20440;-72
2021/09/16 12:41:32;;;;;;;17.67;13.77;;;;;;;;;;5087273;28;20445;-72
2021/09/16 12:44:01;;;;;;;20.33;15.27;;;;;;;;;;5087317;28;20536;-71
2021/09/16 12:46:28;;;;;;;20.47;13.93;;;;;;;;;;5076240;28;21107;-71
2021/09/16 12:48:56;;;;;;;19.97;14.57;;;;;;;;;;5086803;28;20525;-71
2021/09/16 12:51:23;;;;;;;21.70;14.87;;;;;;;;;;5086854;28;20523;-72
2021/09/16 12:53:53;;;;;;;17.90;13.60;;;;;;;;;;5086629;28;20448;-72
2021/09/16 12:56:20;;;;;;;18.73;14.00;;;;;;;;;;5087267;28;20506;-71
2021/09/16 12:58:49;;;;;;;19.03;13.70;;;;;;;;;;5087255;28;20528;-72
2021/09/16 13:01:17;;;;;;;17.63;13.10;;;;;;;;;;5097526;28;20517;-71
2021/09/16 13:03:59;;;;;;;16.87;14.03;;;;;;;;;;5099482;28;20437;-72
2021/09/16 13:06:31;;;;;;;17.10;12.90;;;;;;;;;;5085976;28;20524;-73
2021/09/16 13:08:58;;;;;;;15.70;12.73;;;;;;;;;;5086070;28;20524;-72
2021/09/16 13:11:26;;;;;;;17.70;13.60;;;;;;;;;;5086413;28;20536;-71
2021/09/16 13:14:06;;;;;;;18.70;13.83;;;;;;;;;;5085906;28;20818;-71
2021/09/16 13:16:35;;;;;;;14.90;12.97;;;;;;;;;;5085360;28;20878;-71
2021/09/16 13:19:02;;;;;;;14.77;13.20;;;;;;;;;;5075008;28;20517;-72
2021/09/16 13:21:29;;;;;;;13.67;12.13;;;;;;;;;;5071636;28;20487;-72
2021/09/16 13:23:57;;;;;;;14.67;12.73;;;;;;;;;;5072721;28;20460;-74
2021/09/16 13:26:26;;;;;;;16.20;11.90;;;;;;;;;;5072513;28;20452;-72
2021/09/16 13:28:53;;;;;;;18.00;14.87;;;;;;;;;;5072329;28;20449;-71
2021/09/16 13:31:22;;;;;;;18.20;14.47;;;;;;;;;;5073014;28;20549;-71
2021/09/16 13:33:51;;;;;;;18.70;15.30;;;;;;;;;;5071401;28;20449;-71
2021/09/16 13:36:18;;;;;;;18.50;14.37;;;;;;;;;;5072526;28;20461;-71
2021/09/16 13:38:45;;;;;;;18.27;14.77;;;;;;;;;;5071391;28;20480;-71
2021/09/16 13:41:12;;;;;;;18.23;13.77;;;;;;;;;;5072435;28;20452;-71
2021/09/16 13:43:40;;;;;;;20.47;14.13;;;;;;;;;;5071435;28;20476;-71
2021/09/16 13:46:07;;;;;;;16.97;14.67;;;;;;;;;;5065090;28;20840;-72
2021/09/16 13:48:34;;;;;;;20.97;14.30;;;;;;;;;;5068248;28;20584;-72
2021/09/16 13:51:02;;;;;;;15.10;13.27;;;;;;;;;;5071805;28;20525;-74
2021/09/16 13:53:30;;;;;;;20.63;16.97;;;;;;;;;;5071386;28;20445;-72
2021/09/16 13:55:57;;;;;;;19.10;15.67;;;;;;;;;;5071987;28;20449;-71
2021/09/16 13:58:24;;;;;;;14.67;13.13;;;;;;;;;;5071608;28;21333;-73
2021/09/16 14:00:51;;;;;;;16.80;14.27;;;;;;;;;;5072017;28;20576;-73
2021/09/16 14:03:19;;;;;;;19.23;15.80;;;;;;;;;;5071641;28;20445;-71
2021/09/16 14:05:46;;;;;;;16.40;14.70;;;;;;;;;;5070583;28;20446;-70
2021/09/16 14:08:14;;;;;;;19.20;14.00;;;;;;;;;;5071165;28;20513;-72
2021/09/16 14:10:42;;;;;;;16.23;13.90;;;;;;;;;;5070332;28;20942;-72
2021/09/16 14:13:09;;;;;;;14.40;12.57;;;;;;;;;;5071305;28;20925;-71
2021/09/16 14:15:36;;;;;;;15.43;13.10;;;;;;;;;;5070774;28;20541;-72
2021/09/16 14:18:03;;;;;;;14.93;12.47;;;;;;;;;;5071411;28;20455;-72
2021/09/16 14:20:31;;;;;;;17.73;12.80;;;;;;;;;;5070036;28;20538;-76
2021/09/16 14:22:58;;;;;;;13.93;11.97;;;;;;;;;;5071265;28;20449;-71